sensor_id;sensor_type;location;lat;lon;timestamp;P1;durP1;ratioP1;P2;durP2;ratioP2
49310;SDS011;35177;45.900;5.946;2024-02-23T00:01:58;0.15;;;0.15;;
49310;SDS011;35177;45.900;5.946;2024-02-23T00:04:23;0.22;;;0.10;;
49310;SDS011;35177;45.900;5.946;2024-02-23T00:06:48;0.47;;;0.20;;
49310;SDS011;35177;45.900;5.946;2024-02-23T00:09:14;1.30;;;0.40;;
49310;SDS011;35177;45.900;5.946;2024-02-23T00:11:39;0.85;;;0.20;;
49310;SDS011;35177;45.900;5.946;2024-02-23T00:14:06;0.38;;;0.15;;
49310;SDS011;35177;45.900;5.946;2024-02-23T00:16:37;0.32;;;0.25;;
49310;SDS011;35177;45.900;5.946;2024-02-23T00:19:02;0.43;;;0.10;;
49310;SDS011;35177;45.900;5.946;2024-02-23T00:21:27;0.57;;;0.30;;
49310;SDS011;35177;45.900;5.946;2024-02-23T00:23:53;1.98;;;0.30;;
49310;SDS011;35177;45.900;5.946;2024-02-23T00:26:18;0.40;;;0.28;;
49310;SDS011;35177;45.900;5.946;2024-02-23T00:28:43;1.00;;;0.30;;
49310;SDS011;35177;45.900;5.946;2024-02-23T00:31:08;2.65;;;0.30;;
49310;SDS011;35177;45.900;5.946;2024-02-23T00:33:34;2.40;;;0.50;;
49310;SDS011;35177;45.900;5.946;2024-02-23T00:35:59;1.42;;;0.32;;
49310;SDS011;35177;45.900;5.946;2024-02-23T00:38:25;0.75;;;0.30;;
49310;SDS011;35177;45.900;5.946;2024-02-23T00:40:50;4.57;;;0.60;;
49310;SDS011;35177;45.900;5.946;2024-02-23T00:43:15;1.50;;;0.30;;
49310;SDS011;35177;45.900;5.946;2024-02-23T00:45:41;0.30;;;0.30;;
49310;SDS011;35177;45.900;5.946;2024-02-23T00:48:06;1.27;;;0.60;;
49310;SDS011;35177;45.900;5.946;2024-02-23T00:50:31;1.52;;;0.60;;
49310;SDS011;35177;45.900;5.946;2024-02-23T00:52:57;0.90;;;0.40;;
49310;SDS011;35177;45.900;5.946;2024-02-23T00:55:22;1.23;;;0.40;;
49310;SDS011;35177;45.900;5.946;2024-02-23T00:57:47;0.93;;;0.40;;
49310;SDS011;35177;45.900;5.946;2024-02-23T01:00:12;1.65;;;0.75;;
49310;SDS011;35177;45.900;5.946;2024-02-23T01:02:38;3.65;;;0.80;;
49310;SDS011;35177;45.900;5.946;2024-02-23T01:05:04;0.63;;;0.40;;
49310;SDS011;35177;45.900;5.946;2024-02-23T01:07:29;2.85;;;0.82;;
49310;SDS011;35177;45.900;5.946;2024-02-23T01:09:54;2.60;;;0.75;;
49310;SDS011;35177;45.900;5.946;2024-02-23T01:12:20;0.73;;;0.40;;
49310;SDS011;35177;45.900;5.946;2024-02-23T01:14:45;1.40;;;0.40;;
49310;SDS011;35177;45.900;5.946;2024-02-23T01:17:13;3.35;;;0.50;;
49310;SDS011;35177;45.900;5.946;2024-02-23T01:19:38;0.30;;;0.30;;
49310;SDS011;35177;45.900;5.946;2024-02-23T01:22:04;0.77;;;0.30;;
49310;SDS011;35177;45.900;5.946;2024-02-23T01:24:29;1.92;;;0.60;;
49310;SDS011;35177;45.900;5.946;2024-02-23T01:26:57;0.30;;;0.20;;
49310;SDS011;35177;45.900;5.946;2024-02-23T01:29:23;1.33;;;0.50;;
49310;SDS011;35177;45.900;5.946;2024-02-23T01:31:49;2.72;;;0.43;;
49310;SDS011;35177;45.900;5.946;2024-02-23T01:34:14;1.35;;;0.22;;
49310;SDS011;35177;45.900;5.946;2024-02-23T01:36:39;0.85;;;0.28;;
49310;SDS011;35177;45.900;5.946;2024-02-23T01:39:05;0.47;;;0.28;;
49310;SDS011;35177;45.900;5.946;2024-02-23T01:41:30;1.48;;;0.20;;
49310;SDS011;35177;45.900;5.946;2024-02-23T01:43:55;0.50;;;0.20;;
49310;SDS011;35177;45.900;5.946;2024-02-23T01:46:21;1.20;;;0.40;;
49310;SDS011;35177;45.900;5.946;2024-02-23T01:48:46;1.48;;;0.28;;
49310;SDS011;35177;45.900;5.946;2024-02-23T01:51:11;1.27;;;0.50;;
49310;SDS011;35177;45.900;5.946;2024-02-23T01:53:37;1.73;;;0.30;;
49310;SDS011;35177;45.900;5.946;2024-02-23T01:56:03;0.93;;;0.40;;
49310;SDS011;35177;45.900;5.946;2024-02-23T01:58:29;0.47;;;0.38;;
49310;SDS011;35177;45.900;5.946;2024-02-23T02:00:55;2.13;;;0.45;;
49310;SDS011;35177;45.900;5.946;2024-02-23T02:03:21;0.63;;;0.40;;
49310;SDS011;35177;45.900;5.946;2024-02-23T02:05:46;2.50;;;0.30;;
49310;SDS011;35177;45.900;5.946;2024-02-23T02:08:12;0.68;;;0.30;;
49310;SDS011;35177;45.900;5.946;2024-02-23T02:10:37;0.43;;;0.30;;
49310;SDS011;35177;45.900;5.946;2024-02-23T02:13:03;0.20;;;0.20;;
49310;SDS011;35177;45.900;5.946;2024-02-23T02:15:29;3.97;;;1.60;;
49310;SDS011;35177;45.900;5.946;2024-02-23T02:17:54;0.98;;;0.43;;
49310;SDS011;35177;45.900;5.946;2024-02-23T02:20:19;1.27;;;0.50;;
49310;SDS011;35177;45.900;5.946;2024-02-23T02:22:48;3.70;;;0.57;;
49310;SDS011;35177;45.900;5.946;2024-02-23T02:25:14;4.20;;;0.60;;
49310;SDS011;35177;45.900;5.946;2024-02-23T02:27:40;1.50;;;0.50;;
49310;SDS011;35177;45.900;5.946;2024-02-23T02:30:06;2.03;;;0.50;;
49310;SDS011;35177;45.900;5.946;2024-02-23T02:32:31;2.80;;;0.57;;
49310;SDS011;35177;45.900;5.946;2024-02-23T02:34:56;1.45;;;0.50;;
49310;SDS011;35177;45.900;5.946;2024-02-23T02:37:22;1.10;;;0.70;;
49310;SDS011;35177;45.900;5.946;2024-02-23T02:39:47;2.03;;;0.70;;
49310;SDS011;35177;45.900;5.946;2024-02-23T02:42:12;4.38;;;0.60;;
49310;SDS011;35177;45.900;5.946;2024-02-23T02:44:37;1.23;;;0.65;;
49310;SDS011;35177;45.900;5.946;2024-02-23T02:47:03;0.65;;;0.55;;
49310;SDS011;35177;45.900;5.946;2024-02-23T02:49:28;3.35;;;1.13;;
49310;SDS011;35177;45.900;5.946;2024-02-23T02:51:53;1.70;;;0.60;;
49310;SDS011;35177;45.900;5.946;2024-02-23T02:54:18;2.13;;;0.60;;
49310;SDS011;35177;45.900;5.946;2024-02-23T02:56:44;1.85;;;0.40;;
49310;SDS011;35177;45.900;5.946;2024-02-23T02:59:11;2.47;;;0.52;;
49310;SDS011;35177;45.900;5.946;2024-02-23T03:01:36;1.23;;;0.57;;
49310;SDS011;35177;45.900;5.946;2024-02-23T03:04:02;2.55;;;0.55;;
49310;SDS011;35177;45.900;5.946;2024-02-23T03:06:27;0.52;;;0.40;;
49310;SDS011;35177;45.900;5.946;2024-02-23T03:08:52;1.08;;;0.60;;
49310;SDS011;35177;45.900;5.946;2024-02-23T03:11:17;1.92;;;0.55;;
49310;SDS011;35177;45.900;5.946;2024-02-23T03:13:43;2.63;;;0.80;;
49310;SDS011;35177;45.900;5.946;2024-02-23T03:16:14;2.20;;;1.20;;
49310;SDS011;35177;45.900;5.946;2024-02-23T03:18:39;2.75;;;1.40;;
49310;SDS011;35177;45.900;5.946;2024-02-23T03:21:05;1.15;;;1.02;;
49310;SDS011;35177;45.900;5.946;2024-02-23T03:23:31;1.85;;;1.00;;
49310;SDS011;35177;45.900;5.946;2024-02-23T03:25:57;1.70;;;1.00;;
49310;SDS011;35177;45.900;5.946;2024-02-23T03:28:22;1.25;;;0.75;;
49310;SDS011;35177;45.900;5.946;2024-02-23T03:30:47;1.13;;;0.65;;
49310;SDS011;35177;45.900;5.946;2024-02-23T03:33:12;0.47;;;0.45;;
49310;SDS011;35177;45.900;5.946;2024-02-23T03:35:38;0.85;;;0.60;;
49310;SDS011;35177;45.900;5.946;2024-02-23T03:38:03;2.47;;;1.08;;
49310;SDS011;35177;45.900;5.946;2024-02-23T03:40:28;2.17;;;1.00;;
49310;SDS011;35177;45.900;5.946;2024-02-23T03:42:54;2.67;;;0.85;;
49310;SDS011;35177;45.900;5.946;2024-02-23T03:45:19;0.85;;;0.70;;
49310;SDS011;35177;45.900;5.946;2024-02-23T03:47:44;0.75;;;0.70;;
49310;SDS011;35177;45.900;5.946;2024-02-23T03:50:09;2.40;;;0.90;;
49310;SDS011;35177;45.900;5.946;2024-02-23T03:52:35;1.20;;;0.80;;
49310;SDS011;35177;45.900;5.946;2024-02-23T03:55:00;5.38;;;1.08;;
49310;SDS011;35177;45.900;5.946;2024-02-23T03:57:25;29.90;;;2.60;;
49310;SDS011;35177;45.900;5.946;2024-02-23T03:59:51;119.55;;;6.43;;
49310;SDS011;35177;45.900;5.946;2024-02-23T04:02:17;345.50;;;11.60;;
49310;SDS011;35177;45.900;5.946;2024-02-23T04:04:42;279.27;;;8.80;;
49310;SDS011;35177;45.900;5.946;2024-02-23T04:07:08;194.43;;;9.98;;
49310;SDS011;35177;45.900;5.946;2024-02-23T04:09:33;39.55;;;2.22;;
49310;SDS011;35177;45.900;5.946;2024-02-23T04:11:58;9.35;;;1.20;;
49310;SDS011;35177;45.900;5.946;2024-02-23T04:14:23;2.53;;;1.10;;
49310;SDS011;35177;45.900;5.946;2024-02-23T04:16:49;8.15;;;2.10;;
49310;SDS011;35177;45.900;5.946;2024-02-23T04:19:14;11.00;;;1.98;;
49310;SDS011;35177;45.900;5.946;2024-02-23T04:21:39;19.98;;;2.85;;
49310;SDS011;35177;45.900;5.946;2024-02-23T04:24:05;9.02;;;2.75;;
49310;SDS011;35177;45.900;5.946;2024-02-23T04:26:31;80.15;;;6.60;;
49310;SDS011;35177;45.900;5.946;2024-02-23T04:28:57;41.28;;;6.60;;
49310;SDS011;35177;45.900;5.946;2024-02-23T04:31:22;111.38;;;17.95;;
49310;SDS011;35177;45.900;5.946;2024-02-23T04:33:47;57.17;;;8.32;;
49310;SDS011;35177;45.900;5.946;2024-02-23T04:36:13;96.28;;;5.53;;
49310;SDS011;35177;45.900;5.946;2024-02-23T04:38:38;25.90;;;3.70;;
49310;SDS011;35177;45.900;5.946;2024-02-23T04:41:03;76.03;;;5.45;;
49310;SDS011;35177;45.900;5.946;2024-02-23T04:43:29;44.05;;;3.80;;
49310;SDS011;35177;45.900;5.946;2024-02-23T04:45:55;60.78;;;4.35;;
49310;SDS011;35177;45.900;5.946;2024-02-23T04:48:20;107.10;;;6.43;;
49310;SDS011;35177;45.900;5.946;2024-02-23T04:50:45;217.30;;;9.65;;
49310;SDS011;35177;45.900;5.946;2024-02-23T04:53:11;352.42;;;15.95;;
49310;SDS011;35177;45.900;5.946;2024-02-23T04:55:36;375.40;;;14.52;;
49310;SDS011;35177;45.900;5.946;2024-02-23T04:58:01;472.65;;;17.33;;
49310;SDS011;35177;45.900;5.946;2024-02-23T05:00:26;491.75;;;21.83;;
49310;SDS011;35177;45.900;5.946;2024-02-23T05:02:58;449.00;;;20.77;;
49310;SDS011;35177;45.900;5.946;2024-02-23T05:05:23;174.63;;;7.57;;
49310;SDS011;35177;45.900;5.946;2024-02-23T05:07:48;196.55;;;7.57;;
49310;SDS011;35177;45.900;5.946;2024-02-23T05:10:13;113.45;;;7.70;;
49310;SDS011;35177;45.900;5.946;2024-02-23T05:12:39;114.78;;;5.38;;
49310;SDS011;35177;45.900;5.946;2024-02-23T05:15:04;221.30;;;11.07;;
49310;SDS011;35177;45.900;5.946;2024-02-23T05:17:29;306.08;;;13.15;;
49310;SDS011;35177;45.900;5.946;2024-02-23T05:19:55;299.08;;;14.57;;
49310;SDS011;35177;45.900;5.946;2024-02-23T05:22:20;271.35;;;12.63;;
49310;SDS011;35177;45.900;5.946;2024-02-23T05:24:46;200.27;;;8.80;;
49310;SDS011;35177;45.900;5.946;2024-02-23T05:27:11;81.10;;;5.00;;
49310;SDS011;35177;45.900;5.946;2024-02-23T05:29:36;74.82;;;5.32;;
49310;SDS011;35177;45.900;5.946;2024-02-23T05:32:02;161.88;;;7.70;;
49310;SDS011;35177;45.900;5.946;2024-02-23T05:34:28;87.40;;;6.60;;
49310;SDS011;35177;45.900;5.946;2024-02-23T05:36:53;68.70;;;5.88;;
49310;SDS011;35177;45.900;5.946;2024-02-23T05:39:18;117.20;;;5.80;;
49310;SDS011;35177;45.900;5.946;2024-02-23T05:41:44;105.00;;;5.70;;
49310;SDS011;35177;45.900;5.946;2024-02-23T05:44:09;92.75;;;6.43;;
49310;SDS011;35177;45.900;5.946;2024-02-23T05:46:35;21.20;;;3.65;;
49310;SDS011;35177;45.900;5.946;2024-02-23T05:49:01;39.08;;;4.75;;
49310;SDS011;35177;45.900;5.946;2024-02-23T05:51:27;100.93;;;6.18;;
49310;SDS011;35177;45.900;5.946;2024-02-23T05:53:54;136.50;;;11.77;;
49310;SDS011;35177;45.900;5.946;2024-02-23T05:56:19;50.90;;;4.30;;
49310;SDS011;35177;45.900;5.946;2024-02-23T05:58:44;73.25;;;5.18;;
49310;SDS011;35177;45.900;5.946;2024-02-23T06:01:10;53.80;;;4.25;;
49310;SDS011;35177;45.900;5.946;2024-02-23T06:03:35;59.33;;;5.93;;
49310;SDS011;35177;45.900;5.946;2024-02-23T06:06:00;103.63;;;6.18;;
49310;SDS011;35177;45.900;5.946;2024-02-23T06:08:26;51.38;;;4.18;;
49310;SDS011;35177;45.900;5.946;2024-02-23T06:10:51;76.32;;;4.88;;
49310;SDS011;35177;45.900;5.946;2024-02-23T06:13:16;159.20;;;6.35;;
49310;SDS011;35177;45.900;5.946;2024-02-23T06:15:41;58.08;;;3.63;;
49310;SDS011;35177;45.900;5.946;2024-02-23T06:18:07;136.50;;;5.88;;
49310;SDS011;35177;45.900;5.946;2024-02-23T06:20:32;110.63;;;5.25;;
49310;SDS011;35177;45.900;5.946;2024-02-23T06:22:57;25.10;;;2.90;;
49310;SDS011;35177;45.900;5.946;2024-02-23T06:25:23;28.38;;;3.15;;
49310;SDS011;35177;45.900;5.946;2024-02-23T06:27:48;2.97;;;2.30;;
49310;SDS011;35177;45.900;5.946;2024-02-23T06:30:13;3.60;;;2.40;;
49310;SDS011;35177;45.900;5.946;2024-02-23T06:32:39;6.28;;;2.42;;
49310;SDS011;35177;45.900;5.946;2024-02-23T06:35:04;4.00;;;2.67;;
49310;SDS011;35177;45.900;5.946;2024-02-23T06:37:31;143.40;;;9.75;;
49310;SDS011;35177;45.900;5.946;2024-02-23T06:39:56;27.42;;;4.95;;
49310;SDS011;35177;45.900;5.946;2024-02-23T06:42:22;98.93;;;8.27;;
49310;SDS011;35177;45.900;5.946;2024-02-23T06:44:47;52.95;;;5.47;;
49310;SDS011;35177;45.900;5.946;2024-02-23T06:47:13;49.40;;;5.50;;
49310;SDS011;35177;45.900;5.946;2024-02-23T06:49:42;64.68;;;5.45;;
49310;SDS011;35177;45.900;5.946;2024-02-23T06:52:08;36.40;;;4.72;;
49310;SDS011;35177;45.900;5.946;2024-02-23T06:54:33;24.80;;;4.53;;
49310;SDS011;35177;45.900;5.946;2024-02-23T06:56:58;27.00;;;4.75;;
49310;SDS011;35177;45.900;5.946;2024-02-23T06:59:24;14.55;;;4.32;;
49310;SDS011;35177;45.900;5.946;2024-02-23T07:01:49;56.17;;;6.47;;
49310;SDS011;35177;45.900;5.946;2024-02-23T07:07:17;43.72;;;5.13;;
49310;SDS011;35177;45.900;5.946;2024-02-23T07:09:43;34.63;;;4.53;;
49310;SDS011;35177;45.900;5.946;2024-02-23T07:12:08;17.88;;;4.10;;
49310;SDS011;35177;45.900;5.946;2024-02-23T07:14:36;11.77;;;4.85;;
49310;SDS011;35177;45.900;5.946;2024-02-23T07:17:01;30.48;;;5.00;;
49310;SDS011;35177;45.900;5.946;2024-02-23T07:19:27;42.80;;;5.03;;
49310;SDS011;35177;45.900;5.946;2024-02-23T07:21:52;9.77;;;4.18;;
49310;SDS011;35177;45.900;5.946;2024-02-23T07:24:17;10.00;;;5.18;;
49310;SDS011;35177;45.900;5.946;2024-02-23T07:26:42;20.58;;;5.90;;
49310;SDS011;35177;45.900;5.946;2024-02-23T07:29:08;26.25;;;6.13;;
49310;SDS011;35177;45.900;5.946;2024-02-23T07:31:33;25.92;;;6.53;;
49310;SDS011;35177;45.900;5.946;2024-02-23T07:33:58;128.98;;;8.80;;
49310;SDS011;35177;45.900;5.946;2024-02-23T07:36:24;112.22;;;8.32;;
49310;SDS011;35177;45.900;5.946;2024-02-23T07:38:49;27.20;;;5.63;;
49310;SDS011;35177;45.900;5.946;2024-02-23T07:41:14;36.65;;;6.25;;
49310;SDS011;35177;45.900;5.946;2024-02-23T07:43:40;126.82;;;9.27;;
49310;SDS011;35177;45.900;5.946;2024-02-23T07:46:05;24.77;;;5.82;;
49310;SDS011;35177;45.900;5.946;2024-02-23T07:48:33;34.75;;;6.20;;
49310;SDS011;35177;45.900;5.946;2024-02-23T07:50:59;39.67;;;5.70;;
49310;SDS011;35177;45.900;5.946;2024-02-23T07:53:24;33.13;;;6.65;;
49310;SDS011;35177;45.900;5.946;2024-02-23T07:55:49;44.33;;;6.63;;
49310;SDS011;35177;45.900;5.946;2024-02-23T07:58:15;41.13;;;6.95;;
49310;SDS011;35177;45.900;5.946;2024-02-23T08:00:40;15.40;;;6.13;;
49310;SDS011;35177;45.900;5.946;2024-02-23T08:03:05;27.10;;;7.15;;
49310;SDS011;35177;45.900;5.946;2024-02-23T08:05:31;33.85;;;6.63;;
49310;SDS011;35177;45.900;5.946;2024-02-23T08:07:57;26.13;;;6.25;;
49310;SDS011;35177;45.900;5.946;2024-02-23T08:10:22;7.28;;;4.15;;
49310;SDS011;35177;45.900;5.946;2024-02-23T08:12:48;12.68;;;4.72;;
49310;SDS011;35177;45.900;5.946;2024-02-23T08:15:13;10.77;;;4.95;;
49310;SDS011;35177;45.900;5.946;2024-02-23T08:17:38;9.88;;;4.60;;
49310;SDS011;35177;45.900;5.946;2024-02-23T08:20:04;16.92;;;4.80;;
49310;SDS011;35177;45.900;5.946;2024-02-23T08:22:30;10.48;;;4.75;;
49310;SDS011;35177;45.900;5.946;2024-02-23T08:24:55;10.25;;;4.68;;
49310;SDS011;35177;45.900;5.946;2024-02-23T08:27:20;18.63;;;4.80;;
49310;SDS011;35177;45.900;5.946;2024-02-23T08:29:45;8.45;;;4.22;;
49310;SDS011;35177;45.900;5.946;2024-02-23T08:32:10;7.38;;;4.07;;
49310;SDS011;35177;45.900;5.946;2024-02-23T08:34:36;12.60;;;4.90;;
49310;SDS011;35177;45.900;5.946;2024-02-23T08:37:01;9.52;;;5.03;;
49310;SDS011;35177;45.900;5.946;2024-02-23T08:39:27;11.35;;;4.97;;
49310;SDS011;35177;45.900;5.946;2024-02-23T08:41:53;12.90;;;5.65;;
49310;SDS011;35177;45.900;5.946;2024-02-23T08:44:19;14.32;;;5.20;;
49310;SDS011;35177;45.900;5.946;2024-02-23T08:46:45;10.32;;;5.22;;
49310;SDS011;35177;45.900;5.946;2024-02-23T08:49:10;12.52;;;5.30;;
49310;SDS011;35177;45.900;5.946;2024-02-23T08:51:35;9.82;;;5.20;;
49310;SDS011;35177;45.900;5.946;2024-02-23T08:54:01;7.93;;;4.30;;
49310;SDS011;35177;45.900;5.946;2024-02-23T08:56:30;7.28;;;4.43;;
49310;SDS011;35177;45.900;5.946;2024-02-23T08:58:56;11.32;;;5.22;;
49310;SDS011;35177;45.900;5.946;2024-02-23T09:01:22;8.48;;;5.50;;
49310;SDS011;35177;45.900;5.946;2024-02-23T09:03:47;10.93;;;4.65;;
49310;SDS011;35177;45.900;5.946;2024-02-23T09:06:12;7.82;;;5.25;;
49310;SDS011;35177;45.900;5.946;2024-02-23T09:08:38;7.07;;;5.05;;
49310;SDS011;35177;45.900;5.946;2024-02-23T09:11:03;10.40;;;5.30;;
49310;SDS011;35177;45.900;5.946;2024-02-23T09:13:28;8.20;;;5.20;;
49310;SDS011;35177;45.900;5.946;2024-02-23T09:15:55;8.30;;;5.35;;
49310;SDS011;35177;45.900;5.946;2024-02-23T09:18:20;10.00;;;4.90;;
49310;SDS011;35177;45.900;5.946;2024-02-23T09:20:45;7.32;;;4.78;;
49310;SDS011;35177;45.900;5.946;2024-02-23T09:23:11;7.45;;;4.93;;
49310;SDS011;35177;45.900;5.946;2024-02-23T09:25:37;9.00;;;5.78;;
49310;SDS011;35177;45.900;5.946;2024-02-23T09:28:02;10.02;;;6.15;;
49310;SDS011;35177;45.900;5.946;2024-02-23T09:30:27;8.35;;;5.03;;
49310;SDS011;35177;45.900;5.946;2024-02-23T09:32:53;7.93;;;5.07;;
49310;SDS011;35177;45.900;5.946;2024-02-23T09:35:19;6.65;;;5.13;;
49310;SDS011;35177;45.900;5.946;2024-02-23T09:37:45;10.88;;;5.95;;
49310;SDS011;35177;45.900;5.946;2024-02-23T09:40:10;12.43;;;8.10;;
49310;SDS011;35177;45.900;5.946;2024-02-23T09:42:35;10.77;;;7.00;;
49310;SDS011;35177;45.900;5.946;2024-02-23T09:45:03;12.25;;;7.60;;
49310;SDS011;35177;45.900;5.946;2024-02-23T09:47:28;10.18;;;7.03;;
49310;SDS011;35177;45.900;5.946;2024-02-23T09:49:54;8.77;;;6.63;;
49310;SDS011;35177;45.900;5.946;2024-02-23T09:52:20;10.68;;;6.90;;
49310;SDS011;35177;45.900;5.946;2024-02-23T09:54:45;12.38;;;7.07;;
49310;SDS011;35177;45.900;5.946;2024-02-23T09:57:11;13.32;;;8.45;;
49310;SDS011;35177;45.900;5.946;2024-02-23T09:59:36;12.05;;;7.80;;
49310;SDS011;35177;45.900;5.946;2024-02-23T10:02:06;11.27;;;7.93;;
49310;SDS011;35177;45.900;5.946;2024-02-23T10:04:33;12.32;;;6.63;;
49310;SDS011;35177;45.900;5.946;2024-02-23T10:06:59;7.65;;;6.25;;
49310;SDS011;35177;45.900;5.946;2024-02-23T10:09:24;8.77;;;6.25;;
49310;SDS011;35177;45.900;5.946;2024-02-23T10:11:53;8.63;;;6.00;;
49310;SDS011;35177;45.900;5.946;2024-02-23T10:14:19;9.77;;;6.70;;
49310;SDS011;35177;45.900;5.946;2024-02-23T10:16:44;8.20;;;6.50;;
49310;SDS011;35177;45.900;5.946;2024-02-23T10:19:09;9.32;;;6.82;;
49310;SDS011;35177;45.900;5.946;2024-02-23T10:21:35;12.00;;;7.30;;
49310;SDS011;35177;45.900;5.946;2024-02-23T10:24:00;12.65;;;6.75;;
49310;SDS011;35177;45.900;5.946;2024-02-23T10:26:26;10.05;;;6.28;;
49310;SDS011;35177;45.900;5.946;2024-02-23T10:28:51;9.85;;;6.22;;
49310;SDS011;35177;45.900;5.946;2024-02-23T10:31:17;9.25;;;6.35;;
49310;SDS011;35177;45.900;5.946;2024-02-23T10:33:43;7.70;;;6.20;;
49310;SDS011;35177;45.900;5.946;2024-02-23T10:36:09;12.85;;;7.13;;
49310;SDS011;35177;45.900;5.946;2024-02-23T10:38:37;12.32;;;6.93;;
49310;SDS011;35177;45.900;5.946;2024-02-23T10:41:04;14.55;;;5.90;;
49310;SDS011;35177;45.900;5.946;2024-02-23T10:43:33;7.95;;;5.68;;
49310;SDS011;35177;45.900;5.946;2024-02-23T10:46:00;9.68;;;5.75;;
49310;SDS011;35177;45.900;5.946;2024-02-23T10:48:32;8.65;;;5.97;;
49310;SDS011;35177;45.900;5.946;2024-02-23T10:50:58;8.25;;;5.80;;
49310;SDS011;35177;45.900;5.946;2024-02-23T10:53:24;7.05;;;5.13;;
49310;SDS011;35177;45.900;5.946;2024-02-23T10:55:51;8.20;;;4.93;;
49310;SDS011;35177;45.900;5.946;2024-02-23T10:58:17;7.22;;;5.13;;
49310;SDS011;35177;45.900;5.946;2024-02-23T11:00:42;6.07;;;4.22;;
49310;SDS011;35177;45.900;5.946;2024-02-23T11:03:07;8.63;;;6.05;;
49310;SDS011;35177;45.900;5.946;2024-02-23T11:05:33;7.55;;;5.15;;
49310;SDS011;35177;45.900;5.946;2024-02-23T11:07:58;5.95;;;4.30;;
49310;SDS011;35177;45.900;5.946;2024-02-23T11:10:24;7.53;;;4.68;;
49310;SDS011;35177;45.900;5.946;2024-02-23T11:12:59;6.47;;;4.70;;
49310;SDS011;35177;45.900;5.946;2024-02-23T11:15:28;6.45;;;3.95;;
49310;SDS011;35177;45.900;5.946;2024-02-23T11:17:54;6.78;;;4.30;;
49310;SDS011;35177;45.900;5.946;2024-02-23T11:20:20;5.82;;;4.00;;
49310;SDS011;35177;45.900;5.946;2024-02-23T11:22:51;6.55;;;3.80;;
49310;SDS011;35177;45.900;5.946;2024-02-23T11:25:17;6.68;;;4.13;;
49310;SDS011;35177;45.900;5.946;2024-02-23T11:27:42;5.80;;;3.80;;
49310;SDS011;35177;45.900;5.946;2024-02-23T11:30:09;5.60;;;3.55;;
49310;SDS011;35177;45.900;5.946;2024-02-23T11:32:43;6.72;;;4.07;;
49310;SDS011;35177;45.900;5.946;2024-02-23T11:35:12;6.88;;;3.58;;
49310;SDS011;35177;45.900;5.946;2024-02-23T11:40:32;5.03;;;3.30;;
49310;SDS011;35177;45.900;5.946;2024-02-23T11:42:58;4.80;;;2.80;;
49310;SDS011;35177;45.900;5.946;2024-02-23T11:45:29;5.38;;;2.63;;
49310;SDS011;35177;45.900;5.946;2024-02-23T11:47:55;8.45;;;2.58;;
49310;SDS011;35177;45.900;5.946;2024-02-23T11:50:21;3.53;;;2.38;;
49310;SDS011;35177;45.900;5.946;2024-02-23T11:52:46;4.10;;;2.45;;
49310;SDS011;35177;45.900;5.946;2024-02-23T11:55:11;2.30;;;1.50;;
49310;SDS011;35177;45.900;5.946;2024-02-23T11:57:37;2.08;;;1.50;;
49310;SDS011;35177;45.900;5.946;2024-02-23T12:00:03;5.45;;;1.63;;
49310;SDS011;35177;45.900;5.946;2024-02-23T12:02:29;2.75;;;1.50;;
49310;SDS011;35177;45.900;5.946;2024-02-23T12:04:54;4.38;;;1.60;;
49310;SDS011;35177;45.900;5.946;2024-02-23T12:07:19;2.70;;;1.50;;
49310;SDS011;35177;45.900;5.946;2024-02-23T12:09:46;2.85;;;0.47;;
49310;SDS011;35177;45.900;5.946;2024-02-23T12:12:12;2.83;;;0.40;;
49310;SDS011;35177;45.900;5.946;2024-02-23T12:14:37;1.33;;;0.30;;
49310;SDS011;35177;45.900;5.946;2024-02-23T12:17:02;0.68;;;0.45;;
49310;SDS011;35177;45.900;5.946;2024-02-23T12:19:32;1.30;;;0.40;;
49310;SDS011;35177;45.900;5.946;2024-02-23T12:22:00;1.48;;;0.65;;
49310;SDS011;35177;45.900;5.946;2024-02-23T12:24:26;2.47;;;0.60;;
49310;SDS011;35177;45.900;5.946;2024-02-23T12:26:56;3.53;;;0.70;;
49310;SDS011;35177;45.900;5.946;2024-02-23T12:29:21;1.52;;;0.40;;
49310;SDS011;35177;45.900;5.946;2024-02-23T12:31:47;1.20;;;0.63;;
49310;SDS011;35177;45.900;5.946;2024-02-23T12:34:13;4.70;;;0.88;;
49310;SDS011;35177;45.900;5.946;2024-02-23T12:36:38;3.22;;;0.77;;
49310;SDS011;35177;45.900;5.946;2024-02-23T12:39:04;2.00;;;0.50;;
49310;SDS011;35177;45.900;5.946;2024-02-23T12:41:30;1.35;;;0.68;;
49310;SDS011;35177;45.900;5.946;2024-02-23T12:43:56;3.20;;;0.73;;
49310;SDS011;35177;45.900;5.946;2024-02-23T12:46:21;2.70;;;0.50;;
49310;SDS011;35177;45.900;5.946;2024-02-23T12:48:46;2.72;;;0.68;;
49310;SDS011;35177;45.900;5.946;2024-02-23T12:51:11;1.85;;;0.45;;
49310;SDS011;35177;45.900;5.946;2024-02-23T12:53:41;2.88;;;0.70;;
49310;SDS011;35177;45.900;5.946;2024-02-23T12:56:10;1.20;;;0.40;;
49310;SDS011;35177;45.900;5.946;2024-02-23T12:58:36;0.88;;;0.30;;
49310;SDS011;35177;45.900;5.946;2024-02-23T13:01:02;2.72;;;1.30;;
49310;SDS011;35177;45.900;5.946;2024-02-23T13:03:27;2.40;;;0.60;;
49310;SDS011;35177;45.900;5.946;2024-02-23T13:05:54;14.25;;;6.95;;
49310;SDS011;35177;45.900;5.946;2024-02-23T13:08:21;6.90;;;4.00;;
49310;SDS011;35177;45.900;5.946;2024-02-23T13:10:46;15.57;;;7.93;;
49310;SDS011;35177;45.900;5.946;2024-02-23T13:13:11;3.42;;;1.63;;
49310;SDS011;35177;45.900;5.946;2024-02-23T13:15:38;3.10;;;0.75;;
49310;SDS011;35177;45.900;5.946;2024-02-23T13:18:04;4.97;;;2.10;;
49310;SDS011;35177;45.900;5.946;2024-02-23T13:20:29;1.08;;;0.50;;
49310;SDS011;35177;45.900;5.946;2024-02-23T13:22:54;0.95;;;0.50;;
49310;SDS011;35177;45.900;5.946;2024-02-23T13:25:19;4.07;;;2.00;;
49310;SDS011;35177;45.900;5.946;2024-02-23T13:27:45;3.30;;;1.83;;
49310;SDS011;35177;45.900;5.946;2024-02-23T13:30:10;2.22;;;0.73;;
49310;SDS011;35177;45.900;5.946;2024-02-23T13:32:37;2.10;;;1.65;;
49310;SDS011;35177;45.900;5.946;2024-02-23T13:35:02;0.50;;;0.30;;
49310;SDS011;35177;45.900;5.946;2024-02-23T13:37:29;1.77;;;0.50;;
49310;SDS011;35177;45.900;5.946;2024-02-23T13:39:54;1.88;;;0.70;;
49310;SDS011;35177;45.900;5.946;2024-02-23T13:42:20;1.15;;;0.80;;
49310;SDS011;35177;45.900;5.946;2024-02-23T13:44:45;2.22;;;0.55;;
49310;SDS011;35177;45.900;5.946;2024-02-23T13:47:11;1.73;;;1.20;;
49310;SDS011;35177;45.900;5.946;2024-02-23T13:49:37;1.33;;;0.55;;
49310;SDS011;35177;45.900;5.946;2024-02-23T13:52:02;2.63;;;0.80;;
49310;SDS011;35177;45.900;5.946;2024-02-23T13:54:27;3.30;;;0.55;;
49310;SDS011;35177;45.900;5.946;2024-02-23T13:56:52;0.30;;;0.30;;
49310;SDS011;35177;45.900;5.946;2024-02-23T13:59:18;2.92;;;1.00;;
49310;SDS011;35177;45.900;5.946;2024-02-23T14:01:44;5.22;;;2.58;;
49310;SDS011;35177;45.900;5.946;2024-02-23T14:04:10;3.10;;;0.50;;
49310;SDS011;35177;45.900;5.946;2024-02-23T14:06:35;1.15;;;0.30;;
49310;SDS011;35177;45.900;5.946;2024-02-23T14:09:00;2.50;;;1.35;;
49310;SDS011;35177;45.900;5.946;2024-02-23T14:11:28;3.00;;;1.50;;
49310;SDS011;35177;45.900;5.946;2024-02-23T14:13:53;1.75;;;0.70;;
49310;SDS011;35177;45.900;5.946;2024-02-23T14:16:18;2.42;;;0.50;;
49310;SDS011;35177;45.900;5.946;2024-02-23T14:18:44;2.00;;;0.50;;
49310;SDS011;35177;45.900;5.946;2024-02-23T14:21:10;0.45;;;0.20;;
49310;SDS011;35177;45.900;5.946;2024-02-23T14:23:35;0.77;;;0.40;;
49310;SDS011;35177;45.900;5.946;2024-02-23T14:26:01;1.20;;;0.40;;
49310;SDS011;35177;45.900;5.946;2024-02-23T14:28:26;1.67;;;0.40;;
49310;SDS011;35177;45.900;5.946;2024-02-23T14:30:51;1.70;;;0.40;;
49310;SDS011;35177;45.900;5.946;2024-02-23T14:33:17;2.17;;;0.52;;
49310;SDS011;35177;45.900;5.946;2024-02-23T14:35:43;1.30;;;0.50;;
49310;SDS011;35177;45.900;5.946;2024-02-23T14:38:08;1.25;;;0.35;;